createdAt,value
2023-01-09T00:01:05.391Z,-0.44
2023-01-09T00:03:05.427Z,-0.28
2023-01-09T00:05:05.372Z,-0.28
2023-01-09T00:08:00.748Z,-0.26
2023-01-09T00:10:00.746Z,-0.19
2023-01-09T00:12:00.709Z,-0.19
2023-01-09T00:14:00.730Z,-0.31
2023-01-09T00:16:00.712Z,-0.3
2023-01-09T00:18:00.748Z,-0.25
2023-01-09T00:20:00.702Z,-0.28
2023-01-09T00:23:49.560Z,-0.38
2023-01-09T00:25:49.528Z,-0.38
2023-01-09T00:27:49.565Z,-0.43
2023-01-09T00:29:49.518Z,-0.4
2023-01-09T00:31:49.530Z,-0.26
2023-01-09T00:33:49.507Z,-0.35
2023-01-09T00:35:49.509Z,-0.27
2023-01-09T00:38:28.774Z,-0.22
2023-01-09T00:40:28.741Z,-0.21
2023-01-09T00:42:28.778Z,-0.2
2023-01-09T00:44:28.792Z,-0.29
2023-01-09T00:46:28.875Z,-0.24
2023-01-09T00:48:28.796Z,-0.11
2023-01-09T00:50:28.748Z,0
2023-01-09T00:53:23.102Z,0.03
2023-01-09T00:55:23.053Z,0.01
2023-01-09T00:57:23.049Z,-0.32
2023-01-09T00:59:23.109Z,-0.09
2023-01-09T01:01:23.180Z,0.02
2023-01-09T01:03:23.050Z,-0.07
2023-01-09T01:05:23.211Z,-0.04
2023-01-09T01:07:23.211Z,0.11
2023-01-09T01:08:48.550Z,0.08
2023-01-09T01:10:48.209Z,0.03
2023-01-09T01:12:48.195Z,0.23
2023-01-09T01:14:48.251Z,0.21
2023-01-09T01:16:48.227Z,0.17
2023-01-09T01:18:48.188Z,0.23
2023-01-09T01:20:48.170Z,0.21
2023-01-09T01:23:41.337Z,0.15
2023-01-09T01:25:41.310Z,0.19
2023-01-09T01:27:41.279Z,0.3
2023-01-09T01:29:41.291Z,0.37
2023-01-09T01:31:41.297Z,0.44
2023-01-09T01:33:41.273Z,0.25
2023-01-09T01:35:41.268Z,0.05
2023-01-09T01:37:41.281Z,0.26
2023-01-09T01:38:56.952Z,0.35
2023-01-09T01:40:56.956Z,0.43
2023-01-09T01:42:56.946Z,0.33
2023-01-09T01:44:56.966Z,0.38
2023-01-09T01:46:56.961Z,-0.11
2023-01-09T01:48:56.958Z,0.1
2023-01-09T01:50:56.942Z,0.11
2023-01-09T01:54:37.796Z,0.46
2023-01-09T01:56:37.833Z,0.22
2023-01-09T01:58:37.762Z,0.31
2023-01-09T02:00:37.764Z,0.27
2023-01-09T02:02:37.878Z,0.38
2023-01-09T02:04:37.755Z,0.4
2023-01-09T02:06:37.772Z,0.34
2023-01-09T02:09:14.984Z,0.41
2023-01-09T02:11:14.960Z,0.58
2023-01-09T02:13:14.966Z,0.44
2023-01-09T02:15:14.982Z,0.55
2023-01-09T02:17:14.955Z,0.62
2023-01-09T02:19:14.991Z,0.66
2023-01-09T02:21:14.970Z,0.79
2023-01-09T02:23:14.952Z,0.55
2023-01-09T02:24:34.761Z,0.48
2023-01-09T02:26:34.807Z,0.6
2023-01-09T02:28:34.755Z,0.38
2023-01-09T02:30:34.730Z,0.61
2023-01-09T02:32:34.739Z,0.39
2023-01-09T02:34:34.759Z,0.31
2023-01-09T02:36:34.725Z,0.24
2023-01-09T02:39:32.184Z,0.86
2023-01-09T02:41:32.185Z,0.96
2023-01-09T02:43:32.175Z,1
2023-01-09T02:45:32.251Z,1.03
2023-01-09T02:47:32.197Z,1.16
2023-01-09T02:49:32.180Z,1.08
2023-01-09T02:51:32.245Z,0.85
2023-01-09T02:53:32.160Z,0.42
2023-01-09T02:55:24.571Z,0.47
2023-01-09T02:57:24.599Z,0.15
2023-01-09T02:59:24.541Z,0.24
2023-01-09T03:01:24.659Z,0.13
2023-01-09T03:03:24.532Z,0.32
2023-01-09T03:05:24.572Z,0.54
2023-01-09T03:07:24.545Z,0.74
2023-01-09T03:10:01.033Z,0.62
2023-01-09T03:12:00.990Z,0.64
2023-01-09T03:14:01.009Z,0.66
2023-01-09T03:16:01.031Z,0.62
2023-01-09T03:18:01.038Z,0.03
2023-01-09T03:20:00.995Z,0.24
2023-01-09T03:22:01.003Z,-0.24
2023-01-09T03:24:59.286Z,0.12
2023-01-09T03:26:59.263Z,-0.15
2023-01-09T03:28:59.352Z,0.03
2023-01-09T03:30:59.306Z,0.45
2023-01-09T03:32:59.243Z,-0.05
2023-01-09T03:34:59.375Z,0.31
2023-01-09T03:36:59.309Z,0.16
2023-01-09T03:38:59.303Z,0.1
2023-01-09T03:40:19.967Z,0.17
2023-01-09T03:42:19.920Z,0.49
2023-01-09T03:44:19.940Z,0.51
2023-01-09T03:46:19.919Z,0.64
2023-01-09T03:48:19.935Z,0.23
2023-01-09T03:50:19.980Z,0.49
2023-01-09T03:52:19.925Z,0.21
2023-01-09T03:55:27.548Z,0.32
2023-01-09T03:57:27.496Z,0.4
2023-01-09T03:59:27.494Z,0.18
2023-01-09T04:01:30.414Z,0.26
2023-01-09T04:03:27.478Z,0.25
2023-01-09T04:05:27.515Z,0.29
2023-01-09T04:07:27.539Z,0.31
2023-01-09T04:11:17.361Z,0.3
2023-01-09T04:13:17.286Z,0.13
2023-01-09T04:15:17.298Z,-0.19
2023-01-09T04:17:17.263Z,0.07
2023-01-09T04:19:17.316Z,0.51
2023-01-09T04:21:17.298Z,0.56
2023-01-09T04:23:17.299Z,0.42
2023-01-09T04:26:31.912Z,0.48
2023-01-09T04:28:31.934Z,0.42
2023-01-09T04:30:31.877Z,0.11
2023-01-09T04:32:31.861Z,0.27
2023-01-09T04:34:31.881Z,0.56
2023-01-09T04:36:31.886Z,0.4
2023-01-09T04:38:31.897Z,0.51
2023-01-09T04:41:42.367Z,0.06
2023-01-09T04:43:42.296Z,0.36
2023-01-09T04:45:42.360Z,-0.1
2023-01-09T04:47:42.301Z,-0.2
2023-01-09T04:49:42.302Z,0
2023-01-09T04:51:42.306Z,0.14
2023-01-09T04:53:42.295Z,0.01
2023-01-09T04:56:13.121Z,-0.25
2023-01-09T04:58:13.116Z,0.34
2023-01-09T05:00:13.101Z,0.13
2023-01-09T05:02:13.141Z,0.08
2023-01-09T05:04:13.133Z,0.3
2023-01-09T05:06:13.088Z,0.41
2023-01-09T05:08:13.051Z,0.49
2023-01-09T05:11:52.381Z,0.59
2023-01-09T05:13:52.391Z,0.58
2023-01-09T05:15:52.444Z,0.37
2023-01-09T05:17:52.364Z,0.51
2023-01-09T05:19:52.440Z,0.19
2023-01-09T05:21:52.548Z,0.28
2023-01-09T05:23:52.444Z,0.33
2023-01-09T05:27:10.673Z,0.37
2023-01-09T05:29:10.501Z,0.52
2023-01-09T05:31:10.487Z,0.52
2023-01-09T05:33:10.445Z,0.77
2023-01-09T05:35:10.485Z,0.86
2023-01-09T05:37:10.437Z,0.96
2023-01-09T05:39:10.454Z,0.95
2023-01-09T05:41:27.126Z,0.93
2023-01-09T05:43:27.154Z,0.59
2023-01-09T05:45:27.250Z,0.46
2023-01-09T05:47:27.124Z,0.55
2023-01-09T05:49:27.137Z,0.17
2023-01-09T05:51:27.130Z,0.34
2023-01-09T05:53:27.128Z,0.4
2023-01-09T05:55:27.109Z,0.49
2023-01-09T05:56:49.174Z,0.54
2023-01-09T05:58:49.172Z,0.49
2023-01-09T06:00:49.177Z,-0.1
2023-01-09T06:02:49.215Z,-0.32
2023-01-09T06:04:49.211Z,0.17
2023-01-09T06:06:49.162Z,0.39
2023-01-09T06:08:49.132Z,0.48
2023-01-09T06:11:51.305Z,0.33
2023-01-09T06:13:51.324Z,0.1
2023-01-09T06:15:51.320Z,-0.34
2023-01-09T06:17:51.399Z,0.08
2023-01-09T06:19:51.287Z,-0.02
2023-01-09T06:21:51.269Z,0.21
2023-01-09T06:23:51.326Z,0.45
2023-01-09T06:25:51.293Z,0.58
2023-01-09T06:27:01.350Z,0.36
2023-01-09T06:29:01.394Z,0.11
2023-01-09T06:31:01.372Z,0.41
2023-01-09T06:33:01.373Z,0.42
2023-01-09T06:35:01.443Z,0.64
2023-01-09T06:37:01.377Z,0.83
2023-01-09T06:39:01.403Z,0.87
2023-01-09T06:41:01.334Z,0.43
2023-01-09T06:42:17.087Z,0.67
2023-01-09T06:44:17.097Z,0.72
2023-01-09T06:46:17.142Z,0.87
2023-01-09T06:48:17.136Z,0.36
2023-01-09T06:50:17.082Z,0.69
2023-01-09T06:52:17.064Z,0.99
2023-01-09T06:54:17.068Z,1.18
2023-01-09T06:57:32.811Z,1.17
2023-01-09T06:59:32.810Z,1.01
2023-01-09T07:01:32.906Z,1
2023-01-09T07:03:33.823Z,0.99
2023-01-09T07:05:32.786Z,1.3
2023-01-09T07:07:32.792Z,1.47
2023-01-09T07:09:32.815Z,1.73
2023-01-09T07:12:50.332Z,1.58
2023-01-09T07:14:50.338Z,1.86
2023-01-09T07:16:50.335Z,1.97
2023-01-09T07:18:50.387Z,2.44
2023-01-09T07:20:50.328Z,1.82
2023-01-09T07:22:50.338Z,2.02
2023-01-09T07:24:50.378Z,2.37
2023-01-09T07:27:52.791Z,2.79
2023-01-09T07:29:52.770Z,2.4
2023-01-09T07:31:52.797Z,2.29
2023-01-09T07:33:52.768Z,2.62
2023-01-09T07:35:52.851Z,2.34
2023-01-09T07:37:52.795Z,2.17
2023-01-09T07:39:52.786Z,2.15
2023-01-09T07:43:36.978Z,2.53
2023-01-09T07:45:37.023Z,2
2023-01-09T07:47:36.967Z,2.38
2023-01-09T07:49:37.005Z,2.58
2023-01-09T07:51:37.086Z,2.13
2023-01-09T07:53:36.993Z,2.33
2023-01-09T07:55:37.003Z,2.69
2023-01-09T07:58:12.674Z,2.46
2023-01-09T08:00:12.610Z,2.34
2023-01-09T08:02:12.703Z,2.96
2023-01-09T08:04:12.631Z,1.97
2023-01-09T08:06:12.617Z,2.39
2023-01-09T08:08:12.711Z,2.67
2023-01-09T08:10:12.630Z,2.81
2023-01-09T08:13:41.834Z,3.32
2023-01-09T08:15:41.895Z,3.55
2023-01-09T08:17:41.835Z,3.63
2023-01-09T08:19:41.821Z,3.75
2023-01-09T08:21:41.862Z,3.56
2023-01-09T08:23:41.929Z,3.03
2023-01-09T08:25:41.806Z,3.54
2023-01-09T08:28:36.987Z,3.3
2023-01-09T08:30:36.992Z,2.84
2023-01-09T08:32:36.969Z,3.19
2023-01-09T08:34:37.088Z,3.04
2023-01-09T08:36:37.046Z,3.45
2023-01-09T08:38:36.950Z,3.58
2023-01-09T08:40:37.001Z,3.84
2023-01-09T08:43:55.319Z,4.34
2023-01-09T08:45:55.324Z,4.31
2023-01-09T08:47:55.361Z,4.88
2023-01-09T08:49:55.318Z,5.2
2023-01-09T08:51:55.314Z,4.82
2023-01-09T08:53:55.325Z,4.54
2023-01-09T08:55:55.389Z,4.78
2023-01-09T08:59:25.070Z,4.62
2023-01-09T09:01:25.140Z,4.57
2023-01-09T09:03:25.118Z,4.91
2023-01-09T09:05:25.055Z,5.37
2023-01-09T09:07:25.063Z,5.26
2023-01-09T09:09:25.120Z,5.91
2023-01-09T09:11:25.109Z,5.69
2023-01-09T09:14:32.937Z,5.82
2023-01-09T09:16:32.939Z,6.25
2023-01-09T09:18:32.949Z,6.3
2023-01-09T09:20:32.928Z,6.23
2023-01-09T09:22:32.940Z,6.36
2023-01-09T09:24:32.909Z,6.22
2023-01-09T09:26:32.967Z,6.2
2023-01-09T09:28:55.675Z,6.1
2023-01-09T09:30:55.729Z,6.2
2023-01-09T09:32:55.675Z,6.18
2023-01-09T09:34:55.703Z,6.27
2023-01-09T09:36:55.768Z,6.39
2023-01-09T09:38:55.666Z,6.51
2023-01-09T09:40:55.655Z,6.43
2023-01-09T09:42:55.697Z,6.79
2023-01-09T09:44:53.226Z,6.93
2023-01-09T09:46:47.305Z,6.86
2023-01-09T09:48:47.250Z,6.93
2023-01-09T09:50:47.302Z,7.24
2023-01-09T09:52:47.238Z,7.06
2023-01-09T09:54:47.249Z,7.21
2023-01-09T09:56:47.375Z,7.59
2023-01-09T09:59:54.933Z,7.89
2023-01-09T10:01:54.966Z,8.23
2023-01-09T10:03:54.928Z,8.33
2023-01-09T10:05:54.957Z,8.51
2023-01-09T10:07:54.966Z,8.46
2023-01-09T10:09:54.914Z,8.67
2023-01-09T10:11:54.906Z,9.08
2023-01-09T10:14:24.133Z,8.89
2023-01-09T10:16:21.044Z,9
2023-01-09T10:18:20.922Z,8.94
2023-01-09T10:20:21.006Z,8.94
2023-01-09T10:22:20.909Z,9.02
2023-01-09T10:24:21.069Z,8.61
2023-01-09T10:26:20.919Z,8.55
2023-01-09T10:28:20.966Z,8.54
2023-01-09T10:30:15.208Z,8.49
2023-01-09T10:32:15.243Z,8.19
2023-01-09T10:34:15.251Z,8.28
2023-01-09T10:36:15.221Z,8.45
2023-01-09T10:38:15.169Z,8.41
2023-01-09T10:40:15.183Z,8.48
2023-01-09T10:42:15.161Z,8.7
2023-01-09T10:44:42.013Z,8.79
2023-01-09T10:46:42.033Z,9
2023-01-09T10:48:41.996Z,9.09
2023-01-09T10:50:41.971Z,9.21
2023-01-09T10:52:41.958Z,9.23
2023-01-09T10:54:41.982Z,9.11
2023-01-09T10:56:41.962Z,9.24
2023-01-09T10:58:41.953Z,9.07
2023-01-09T11:00:34.424Z,9.06
2023-01-09T11:02:34.427Z,9.29
2023-01-09T11:04:34.459Z,9.35
2023-01-09T11:06:34.414Z,9.38
2023-01-09T11:08:34.429Z,9.53
2023-01-09T11:10:34.466Z,9.93
2023-01-09T11:12:34.428Z,10.3
2023-01-09T11:15:55.551Z,10.68
2023-01-09T11:17:55.548Z,10.72
2023-01-09T11:19:55.528Z,10.98
2023-01-09T11:21:55.678Z,10.91
2023-01-09T11:23:55.639Z,11.08
2023-01-09T11:25:55.550Z,11.11
2023-01-09T11:27:55.496Z,11.05
2023-01-09T11:30:46.819Z,10.93
2023-01-09T11:32:46.781Z,11.15
2023-01-09T11:34:46.776Z,11
2023-01-09T11:36:46.857Z,10.96
2023-01-09T11:38:46.777Z,10.73
2023-01-09T11:40:46.767Z,10.67
2023-01-09T11:42:46.791Z,10.84
2023-01-09T11:46:01.322Z,10.77
2023-01-09T11:47:59.824Z,10.79
2023-01-09T11:49:59.826Z,10.91
2023-01-09T11:51:59.883Z,10.96
2023-01-09T11:53:59.826Z,10.88
2023-01-09T11:55:59.828Z,10.99
2023-01-09T11:57:59.830Z,10.94
2023-01-09T12:01:23.467Z,11.11
2023-01-09T12:03:23.457Z,10.77
2023-01-09T12:05:23.435Z,10.85
2023-01-09T12:07:23.430Z,10.66
2023-01-09T12:09:23.422Z,10.46
2023-01-09T12:11:23.460Z,10.66
2023-01-09T12:13:23.391Z,10.88
2023-01-09T12:16:17.741Z,10.64
2023-01-09T12:18:17.756Z,10.64
2023-01-09T12:20:17.555Z,10.68
2023-01-09T12:22:17.637Z,10.72
2023-01-09T12:24:17.576Z,10.44
2023-01-09T12:26:17.862Z,10.56
2023-01-09T12:28:17.644Z,10.54
2023-01-09T12:31:45.307Z,10.52
2023-01-09T12:33:45.761Z,10.75
2023-01-09T12:35:45.234Z,10.67
2023-01-09T12:37:45.256Z,10.66
2023-01-09T12:39:45.235Z,10.6
2023-01-09T12:41:45.215Z,10.4
2023-01-09T12:43:45.256Z,10.58
2023-01-09T12:46:26.386Z,10.8
2023-01-09T12:48:26.238Z,10.57
2023-01-09T12:50:26.020Z,10.5
2023-01-09T12:52:26.025Z,10.37
2023-01-09T12:54:26.005Z,10.55
2023-01-09T12:56:26.078Z,10.48
2023-01-09T12:58:26.009Z,10.23
2023-01-09T13:01:54.182Z,10.53
2023-01-09T13:03:54.094Z,10.46
2023-01-09T13:05:54.117Z,10.57
2023-01-09T13:07:54.082Z,10.68
2023-01-09T13:09:54.088Z,10.63
2023-01-09T13:11:54.146Z,10.36
2023-01-09T13:13:54.165Z,10.59
2023-01-09T13:16:52.804Z,10.26
2023-01-09T13:18:52.813Z,10.45
2023-01-09T13:20:52.808Z,10.39
2023-01-09T13:22:52.791Z,10.43
2023-01-09T13:24:52.795Z,10.32
2023-01-09T13:26:52.783Z,10.39
2023-01-09T13:28:52.813Z,10.59
2023-01-09T13:31:44.178Z,10.55
2023-01-09T13:33:44.037Z,10.35
2023-01-09T13:35:44.036Z,10.45
2023-01-09T13:37:44.016Z,10.39
2023-01-09T13:39:44.020Z,10.26
2023-01-09T13:41:45.659Z,10.19
2023-01-09T13:43:44.046Z,10.34
2023-01-09T13:47:14.659Z,10.21
2023-01-09T13:49:14.659Z,10.34
2023-01-09T13:51:14.633Z,9.99
2023-01-09T13:53:14.622Z,10.11
2023-01-09T13:55:14.656Z,10.02
2023-01-09T13:57:14.617Z,9.89
2023-01-09T13:59:14.667Z,9.97
2023-01-09T14:02:38.689Z,9.78
2023-01-09T14:04:38.719Z,9.6
2023-01-09T14:06:38.672Z,9.78
2023-01-09T14:08:38.660Z,9.63
2023-01-09T14:10:38.703Z,9.55
2023-01-09T14:12:38.660Z,9.6
2023-01-09T14:14:38.645Z,9.62
2023-01-09T14:17:47.889Z,9.62
2023-01-09T14:19:47.874Z,9.48
2023-01-09T14:21:47.882Z,9.52
2023-01-09T14:23:52.432Z,9.43
2023-01-09T14:25:47.875Z,9.45
2023-01-09T14:27:47.871Z,9.44
2023-01-09T14:29:47.852Z,9.51
2023-01-09T14:32:56.003Z,9.28
2023-01-09T14:34:56.012Z,9.2
2023-01-09T14:36:56.013Z,9.3
2023-01-09T14:38:55.976Z,9.27
2023-01-09T14:40:55.987Z,9.1
2023-01-09T14:42:55.987Z,9.11
2023-01-09T14:44:55.985Z,9.14
2023-01-09T14:47:31.922Z,8.89
2023-01-09T14:49:31.898Z,9.05
2023-01-09T14:51:31.886Z,9.04
2023-01-09T14:53:31.922Z,8.99
2023-01-09T14:55:31.875Z,9.05
2023-01-09T14:57:31.888Z,9.01
2023-01-09T14:59:31.899Z,9.03
2023-01-09T15:01:31.907Z,8.94
2023-01-09T15:02:55.281Z,8.92
2023-01-09T15:04:55.280Z,8.84
2023-01-09T15:06:55.251Z,8.9
2023-01-09T15:08:55.295Z,8.72
2023-01-09T15:10:55.376Z,8.79
2023-01-09T15:12:55.221Z,8.76
2023-01-09T15:14:55.280Z,8.73
2023-01-09T15:17:44.941Z,8.43
2023-01-09T15:19:45.019Z,8.53
2023-01-09T15:21:45.000Z,8.57
2023-01-09T15:23:44.936Z,8.58
2023-01-09T15:25:45.003Z,8.59
2023-01-09T15:27:44.926Z,8.62
2023-01-09T15:29:44.997Z,8.35
2023-01-09T15:31:45.028Z,8.45
2023-01-09T15:33:49.468Z,8.4
2023-01-09T15:35:49.506Z,8.3
2023-01-09T15:37:49.500Z,8.38
2023-01-09T15:39:49.477Z,8.26
2023-01-09T15:41:49.470Z,8.31
2023-01-09T15:43:49.444Z,8.32
2023-01-09T15:45:49.472Z,8.39
2023-01-09T15:48:13.428Z,8.16
2023-01-09T15:50:13.417Z,8.33
2023-01-09T15:52:13.389Z,8.14
2023-01-09T15:54:13.392Z,8.22
2023-01-09T15:56:13.453Z,8.25
2023-01-09T15:58:13.348Z,8.27
2023-01-09T16:00:13.352Z,8.26
2023-01-09T16:04:07.122Z,8.39
2023-01-09T16:06:07.113Z,8.38
2023-01-09T16:08:07.076Z,8.34
2023-01-09T16:10:07.104Z,8.3
2023-01-09T16:12:07.107Z,8.28
2023-01-09T16:14:07.076Z,8.13
2023-01-09T16:16:07.062Z,8
2023-01-09T16:18:36.429Z,8.06
2023-01-09T16:20:36.383Z,8.19
2023-01-09T16:22:36.405Z,8.09
2023-01-09T16:24:36.370Z,8.09
2023-01-09T16:26:36.446Z,8.26
2023-01-09T16:28:36.496Z,8.32
2023-01-09T16:30:36.387Z,8.32
2023-01-09T16:33:36.321Z,8
2023-01-09T16:35:36.309Z,7.94
2023-01-09T16:37:36.345Z,7.9
2023-01-09T16:39:36.309Z,8.15
2023-01-09T16:41:38.445Z,8.2
2023-01-09T16:43:36.377Z,8.28
2023-01-09T16:45:36.589Z,8.16
2023-01-09T16:47:36.377Z,8.19
2023-01-09T16:49:23.157Z,8.18
2023-01-09T16:51:23.176Z,8.13
2023-01-09T16:53:23.213Z,8.19
2023-01-09T16:55:23.199Z,8.08
2023-01-09T16:57:23.741Z,8.15
2023-01-09T16:59:23.184Z,8.13
2023-01-09T17:01:23.273Z,8.04
2023-01-09T17:04:14.932Z,7.92
2023-01-09T17:06:14.886Z,7.81
2023-01-09T17:08:14.903Z,7.92
2023-01-09T17:10:14.867Z,7.99
2023-01-09T17:12:14.940Z,7.85
2023-01-09T17:14:14.883Z,7.6
2023-01-09T17:16:14.932Z,7.52
2023-01-09T17:19:06.318Z,7.5
2023-01-09T17:21:06.125Z,7.37
2023-01-09T17:23:06.168Z,7.3
2023-01-09T17:25:08.679Z,7.25
2023-01-09T17:27:06.182Z,7.32
2023-01-09T17:29:06.162Z,7.22
2023-01-09T17:31:06.133Z,7.23
2023-01-09T17:33:06.244Z,6.98
2023-01-09T17:35:01.431Z,6.75
2023-01-09T17:37:03.634Z,6.81
2023-01-09T17:39:01.413Z,6.93
2023-01-09T17:41:01.411Z,6.77
2023-01-09T17:43:01.432Z,6.97
2023-01-09T17:45:01.434Z,6.94
2023-01-09T17:47:01.399Z,6.98
2023-01-09T17:49:53.212Z,7.11
2023-01-09T17:51:53.180Z,6.97
2023-01-09T17:53:53.179Z,7.05
2023-01-09T17:55:53.129Z,7.09
2023-01-09T17:57:53.257Z,7.13
2023-01-09T17:59:53.362Z,7.36
2023-01-09T18:01:53.160Z,7.15
2023-01-09T18:04:34.277Z,7.21
2023-01-09T18:06:34.090Z,7.24
2023-01-09T18:08:33.906Z,7.19
2023-01-09T18:10:33.952Z,7.2
2023-01-09T18:12:33.907Z,7.35
2023-01-09T18:14:33.946Z,7.43
2023-01-09T18:16:34.045Z,7.53
2023-01-09T18:18:33.900Z,7.51
2023-01-09T18:20:17.319Z,7.5
2023-01-09T18:22:17.335Z,6.83
2023-01-09T18:24:17.309Z,7.3
2023-01-09T18:26:17.316Z,7.4
2023-01-09T18:28:17.377Z,7.05
2023-01-09T18:30:17.326Z,7.04
2023-01-09T18:32:17.319Z,7.15
2023-01-09T18:35:07.686Z,7.38
2023-01-09T18:37:07.627Z,7.55
2023-01-09T18:39:07.679Z,7.61
2023-01-09T18:41:07.635Z,7.61
2023-01-09T18:43:07.855Z,7.57
2023-01-09T18:45:07.597Z,7.46
2023-01-09T18:47:07.608Z,7.4
2023-01-09T18:50:41.084Z,7.38
2023-01-09T18:52:41.076Z,7.4
2023-01-09T18:54:41.067Z,6.95
2023-01-09T18:56:40.897Z,7.26
2023-01-09T18:58:40.889Z,7.33
2023-01-09T19:00:40.976Z,7.35
2023-01-09T19:02:40.952Z,7.19
2023-01-09T19:05:33.180Z,7.3
2023-01-09T19:07:33.214Z,7.09
2023-01-09T19:09:33.320Z,7.15
2023-01-09T19:11:33.177Z,6.99
2023-01-09T19:13:33.188Z,7.19
2023-01-09T19:15:33.170Z,7.27
2023-01-09T19:17:33.154Z,7.3
2023-01-09T19:20:39.585Z,6.89
2023-01-09T19:22:39.585Z,7.13
2023-01-09T19:24:39.615Z,7.31
2023-01-09T19:26:39.590Z,7.01
2023-01-09T19:28:39.572Z,7.24
2023-01-09T19:30:39.613Z,7.16
2023-01-09T19:32:39.551Z,7.11
2023-01-09T19:36:15.332Z,7.25
2023-01-09T19:38:15.268Z,7.17
2023-01-09T19:40:15.254Z,7.13
2023-01-09T19:42:15.292Z,7.28
2023-01-09T19:44:15.293Z,7.26
2023-01-09T19:46:16.072Z,7.2
2023-01-09T19:48:15.252Z,7.1
2023-01-09T19:51:17.422Z,7.2
2023-01-09T19:53:17.409Z,7.36
2023-01-09T19:55:17.462Z,7.26
2023-01-09T19:57:17.423Z,7.14
2023-01-09T19:59:17.434Z,7.1
2023-01-09T20:01:17.502Z,7.17
2023-01-09T20:03:17.381Z,7.21
2023-01-09T20:06:19.400Z,6.89
2023-01-09T20:08:19.454Z,6.99
2023-01-09T20:10:19.586Z,7.06
2023-01-09T20:12:19.489Z,6.94
2023-01-09T20:14:19.588Z,7.01
2023-01-09T20:16:19.423Z,7.26
2023-01-09T20:18:19.362Z,7.34
2023-01-09T20:21:36.278Z,6.98
2023-01-09T20:23:36.222Z,6.71
2023-01-09T20:25:36.458Z,6.67
2023-01-09T20:27:36.227Z,6.86
2023-01-09T20:29:36.310Z,7.06
2023-01-09T20:31:36.290Z,7.07
2023-01-09T20:33:36.202Z,7.02
2023-01-09T20:36:28.955Z,6.65
2023-01-09T20:38:28.942Z,6.77
2023-01-09T20:40:28.976Z,6.86
2023-01-09T20:42:28.914Z,7.02
2023-01-09T20:44:28.972Z,7.04
2023-01-09T20:46:28.973Z,6.85
2023-01-09T20:48:28.995Z,6.79
2023-01-09T20:51:32.718Z,7
2023-01-09T20:53:32.721Z,6.83
2023-01-09T20:55:32.742Z,6.85
2023-01-09T20:57:32.716Z,6.87
2023-01-09T20:59:32.752Z,6.88
2023-01-09T21:01:32.734Z,6.84
2023-01-09T21:03:32.718Z,6.97
2023-01-09T21:07:00.634Z,6.87
2023-01-09T21:09:00.617Z,6.82
2023-01-09T21:11:00.607Z,7.04
2023-01-09T21:13:00.596Z,6.78
2023-01-09T21:15:00.608Z,6.78
2023-01-09T21:17:00.712Z,6.57
2023-01-09T21:19:00.626Z,6.91
2023-01-09T21:21:47.742Z,6.87
2023-01-09T21:23:47.674Z,7.04
2023-01-09T21:25:47.700Z,6.69
2023-01-09T21:27:47.653Z,6.95
2023-01-09T21:29:47.659Z,6.64
2023-01-09T21:31:47.740Z,6.95
2023-01-09T21:33:47.699Z,6.86
2023-01-09T21:35:47.732Z,7.12
2023-01-09T21:37:21.020Z,7.01
2023-01-09T21:39:20.937Z,6.95
2023-01-09T21:41:21.035Z,7.09
2023-01-09T21:43:20.938Z,6.76
2023-01-09T21:45:20.936Z,6.92
2023-01-09T21:47:20.953Z,6.53
2023-01-09T21:49:21.018Z,6.89
2023-01-09T21:52:48.236Z,7.02
2023-01-09T21:54:48.254Z,7.07
2023-01-09T21:56:48.251Z,7.2
2023-01-09T21:58:48.269Z,7.24
2023-01-09T22:00:48.241Z,6.94
2023-01-09T22:02:48.265Z,7.15
2023-01-09T22:04:48.267Z,6.91
2023-01-09T22:08:05.285Z,7.13
2023-01-09T22:10:05.245Z,7.11
2023-01-09T22:12:05.295Z,6.92
2023-01-09T22:14:05.280Z,7.04
2023-01-09T22:16:05.295Z,7.15
2023-01-09T22:18:05.237Z,7.23
2023-01-09T22:20:05.300Z,7.48
2023-01-09T22:22:26.874Z,7.11
2023-01-09T22:24:26.858Z,7.33
2023-01-09T22:26:26.882Z,7.43
2023-01-09T22:28:26.873Z,7.52
2023-01-09T22:30:26.831Z,7.45
2023-01-09T22:32:26.888Z,7.47
2023-01-09T22:34:26.828Z,7.36
2023-01-09T22:36:26.858Z,7.19
2023-01-09T22:37:58.836Z,7.39
2023-01-09T22:39:58.850Z,7.35
2023-01-09T22:41:58.849Z,7.43
2023-01-09T22:43:58.885Z,7.53
2023-01-09T22:45:58.838Z,6.79
2023-01-09T22:47:58.850Z,7.33
2023-01-09T22:49:58.830Z,7.55
2023-01-09T22:52:46.228Z,7.34
2023-01-09T22:54:46.241Z,7.51
2023-01-09T22:56:46.201Z,7.61
2023-01-09T22:58:46.235Z,7.34
2023-01-09T23:00:46.226Z,7.36
2023-01-09T23:02:46.346Z,7.38
2023-01-09T23:04:46.213Z,7.21
2023-01-09T23:06:46.270Z,7.41
2023-01-09T23:08:15.593Z,7.53
2023-01-09T23:10:15.539Z,7.4
2023-01-09T23:12:15.587Z,7.46
2023-01-09T23:14:15.550Z,7.54
2023-01-09T23:16:15.636Z,7.43
2023-01-09T23:18:15.536Z,7.49
2023-01-09T23:20:15.560Z,7.58
2023-01-09T23:23:23.831Z,7.57
2023-01-09T23:25:23.756Z,7.56
2023-01-09T23:27:23.781Z,7.76
2023-01-09T23:29:23.745Z,7.31
2023-01-09T23:31:23.852Z,7.56
2023-01-09T23:33:23.799Z,7.58
2023-01-09T23:35:23.753Z,7.55
2023-01-09T23:38:28.392Z,7.41
2023-01-09T23:40:28.324Z,7.44
2023-01-09T23:42:28.316Z,7.66
2023-01-09T23:44:28.317Z,7.71
2023-01-09T23:46:28.352Z,7.55
2023-01-09T23:48:28.366Z,7.5
2023-01-09T23:50:28.316Z,7.61
2023-01-09T23:53:48.321Z,7.7
2023-01-09T23:55:48.356Z,7.43
2023-01-09T23:57:48.389Z,7.52
2023-01-09T23:59:48.276Z,7.53
